Dati Storici

Data ora Umidita' aria (%) Temperatura aria (°C) Rad globale (W/m²) Gonioanemometro (°) Tacoanemometro (m/s) Pioggia (mm)
20-06-2020 18:10 56.9 % 24.8 90.417 1.306 0 0
20-06-2020 18:00 56.2 % 24.547 79.177 1.718 0 0
20-06-2020 17:50 55 % 24.495 89.149 2.578 0 0
20-06-2020 17:40 54.2 % 25.192 194.916 1.638 0 0
20-06-2020 17:30 53.6 % 24.654 186.925 2.497 0 0
20-06-2020 17:20 54.5 % 24.575 145.184 1.831 0 0
20-06-2020 17:10 54.2 % 24.716 118.804 2.697 0 0
20-06-2020 17:00 53.6 % 25.403 110.57 1.435 0 0
20-06-2020 16:50 52.4 % 25.592 126.173 5.199 0 0
20-06-2020 16:40 52.5 % 25.342 116.119 2.636 0 0
20-06-2020 16:30 52 % 24.897 89.16 3.379 0 0
20-06-2020 16:20 51.1 % 24.78 86 2.011 0 0
20-06-2020 16:10 48.7 % 25.703 140.027 4.016 0 0
20-06-2020 16:00 48.6 % 25.481 146.624 0.924 0 0
20-06-2020 15:50 49.3 % 25.365 128.553 3.15 0 0
20-06-2020 15:40 48.6 % 24.832 166.53 3.044 0 0
20-06-2020 15:30 48.7 % 25.45 151.627 2.587 0 0
20-06-2020 15:20 50 % 25.416 142.259 1.349 0 0
20-06-2020 15:10 50.5 % 25.832 121.685 4.227 0 0
20-06-2020 15:00 52.1 % 25.403 99.919 1.468 0 0

I dati sono presentati in modo automatico a scopo informativo. In seguito a verifica i dati possono subire modifiche o essere invalidati e non riportati negli archivi definitivi.